createdAt,value
2023-03-16T00:02:27.176Z,1.28
2023-03-16T00:04:55.730Z,1.25
2023-03-16T00:07:24.862Z,1.20
2023-03-16T00:09:54.883Z,1.23
2023-03-16T00:12:23.914Z,1.22
2023-03-16T00:14:54.664Z,1.23
2023-03-16T00:17:23.162Z,1.33
2023-03-16T00:19:55.424Z,1.40
2023-03-16T00:22:24.596Z,1.46
2023-03-16T00:24:53.466Z,1.52
2023-03-16T00:27:23.075Z,1.54
2023-03-16T00:29:56.264Z,1.55
2023-03-16T00:32:26.689Z,1.59
2023-03-16T00:34:56.189Z,1.62
2023-03-16T00:37:25.485Z,1.66
2023-03-16T00:39:56.694Z,1.67
2023-03-16T00:42:27.856Z,1.72
2023-03-16T00:44:58.478Z,1.76
2023-03-16T00:47:28.603Z,1.80
2023-03-16T00:49:57.370Z,1.86
2023-03-16T00:52:27.778Z,1.92
2023-03-16T00:54:56.738Z,1.93
2023-03-16T00:57:27.952Z,1.95
2023-03-16T00:59:59.476Z,2.02
2023-03-16T01:02:28.464Z,2.11
2023-03-16T01:04:56.848Z,2.19
2023-03-16T01:07:27.342Z,2.21
2023-03-16T01:09:55.873Z,2.23
2023-03-16T01:12:24.315Z,2.22
2023-03-16T01:14:52.735Z,2.29
2023-03-16T01:17:23.333Z,2.30
2023-03-16T01:19:52.026Z,2.33
2023-03-16T01:22:21.943Z,2.36
2023-03-16T01:24:50.454Z,2.37
2023-03-16T01:27:18.867Z,2.38
2023-03-16T01:29:47.326Z,2.36
2023-03-16T01:32:16.014Z,2.39
2023-03-16T01:34:46.275Z,2.40
2023-03-16T01:37:15.443Z,2.39
2023-03-16T01:39:54.924Z,2.31
2023-03-16T01:42:24.540Z,2.23
2023-03-16T01:44:55.842Z,2.17
2023-03-16T01:47:29.257Z,2.14
2023-03-16T01:49:59.394Z,2.13
2023-03-16T01:52:34.238Z,2.12
2023-03-16T01:55:05.434Z,2.15
2023-03-16T01:57:37.255Z,2.13
2023-03-16T02:00:11.044Z,2.11
2023-03-16T02:02:56.469Z,2.18
2023-03-16T02:05:38.169Z,2.17
2023-03-16T02:08:08.046Z,2.21
2023-03-16T02:10:37.449Z,2.28
2023-03-16T02:13:06.090Z,2.35
2023-03-16T02:15:36.412Z,2.36
2023-03-16T02:18:05.954Z,2.39
2023-03-16T02:20:40.660Z,2.40
2023-03-16T02:23:18.637Z,2.43
2023-03-16T02:25:54.790Z,2.42
2023-03-16T02:28:29.543Z,2.40
2023-03-16T02:31:00.027Z,2.41
2023-03-16T02:33:30.374Z,2.39
2023-03-16T02:35:58.999Z,2.30
2023-03-16T02:38:27.457Z,2.35
2023-03-16T02:40:59.476Z,2.37
2023-03-16T02:43:34.463Z,2.43
2023-03-16T02:46:12.036Z,2.45
2023-03-16T02:48:44.411Z,2.55
2023-03-16T02:51:12.968Z,2.60
2023-03-16T02:53:41.358Z,2.58
2023-03-16T02:56:10.267Z,2.56
2023-03-16T02:58:39.136Z,2.59
2023-03-16T03:01:15.314Z,2.56
2023-03-16T03:03:44.024Z,2.51
2023-03-16T03:06:12.407Z,2.57
2023-03-16T03:08:42.869Z,2.56
2023-03-16T03:11:11.818Z,2.56
2023-03-16T03:13:40.346Z,2.56
2023-03-16T03:16:16.306Z,2.59
2023-03-16T03:18:44.895Z,2.59
2023-03-16T03:21:13.310Z,2.61
2023-03-16T03:23:42.365Z,2.63
2023-03-16T03:26:10.748Z,2.66
2023-03-16T03:28:40.043Z,2.61
2023-03-16T03:31:08.452Z,2.56
2023-03-16T03:33:38.402Z,2.49
2023-03-16T03:36:07.166Z,2.38
2023-03-16T03:38:38.670Z,2.27
2023-03-16T03:41:09.015Z,2.18
2023-03-16T03:43:39.931Z,2.05
2023-03-16T03:46:14.270Z,1.98
2023-03-16T03:48:44.351Z,1.86
2023-03-16T03:51:12.992Z,1.80
2023-03-16T03:53:47.459Z,1.75
2023-03-16T03:56:15.855Z,1.70
2023-03-16T03:58:44.224Z,1.68
2023-03-16T04:01:16.189Z,1.64
2023-03-16T04:03:46.391Z,1.61
2023-03-16T04:06:16.829Z,1.57
2023-03-16T04:08:45.429Z,1.53
2023-03-16T04:11:17.486Z,1.49
2023-03-16T04:13:45.967Z,1.42
2023-03-16T04:16:17.976Z,1.32
2023-03-16T04:18:50.509Z,1.33
2023-03-16T04:21:20.333Z,1.21
2023-03-16T04:23:49.816Z,1.14
2023-03-16T04:26:20.148Z,1.16
2023-03-16T04:28:49.969Z,1.15
2023-03-16T04:31:21.207Z,1.15
2023-03-16T04:33:54.924Z,1.15
2023-03-16T04:36:25.498Z,1.10
2023-03-16T04:38:55.339Z,1.11
2023-03-16T04:41:25.589Z,1.05
2023-03-16T04:44:02.212Z,1.04
2023-03-16T04:46:30.888Z,1.01
2023-03-16T04:49:04.399Z,1.02
2023-03-16T04:51:32.966Z,1.01
2023-03-16T04:54:08.844Z,0.96
2023-03-16T04:56:42.420Z,0.92
2023-03-16T04:59:18.577Z,0.91
2023-03-16T05:01:53.965Z,0.87
2023-03-16T05:04:24.939Z,0.81
2023-03-16T05:06:53.526Z,0.82
2023-03-16T05:09:27.300Z,0.76
2023-03-16T05:11:55.797Z,0.75
2023-03-16T05:14:24.156Z,0.67
2023-03-16T05:17:04.972Z,0.66
2023-03-16T05:19:36.147Z,0.70
2023-03-16T05:22:04.787Z,0.75
2023-03-16T05:24:33.390Z,0.76
2023-03-16T05:27:03.848Z,0.76
2023-03-16T05:29:32.471Z,0.84
2023-03-16T05:32:01.130Z,0.93
2023-03-16T05:34:31.944Z,1.00
2023-03-16T05:37:02.011Z,1.09
2023-03-16T05:39:31.189Z,1.11
2023-03-16T05:41:59.698Z,1.17
2023-03-16T05:44:39.959Z,1.17
2023-03-16T05:47:16.361Z,1.22
2023-03-16T05:49:48.702Z,1.23
2023-03-16T05:52:29.645Z,1.27
2023-03-16T05:55:01.122Z,1.38
2023-03-16T05:57:30.107Z,1.56
2023-03-16T06:00:02.121Z,1.72
2023-03-16T06:02:41.050Z,1.81
2023-03-16T06:05:10.592Z,1.79
2023-03-16T06:07:44.497Z,1.77
2023-03-16T06:10:14.161Z,1.84
2023-03-16T06:12:42.710Z,1.94
2023-03-16T06:15:11.687Z,1.93
2023-03-16T06:17:41.113Z,1.93
2023-03-16T06:20:13.163Z,1.98
2023-03-16T06:22:45.825Z,2.01
2023-03-16T06:25:15.469Z,1.96
2023-03-16T06:27:45.917Z,2.05
2023-03-16T06:30:18.396Z,2.06
2023-03-16T06:32:46.940Z,2.12
2023-03-16T06:35:16.343Z,2.27
2023-03-16T06:38:03.264Z,2.42
2023-03-16T06:40:53.204Z,2.75
2023-03-16T06:43:23.102Z,3.13
2023-03-16T06:45:52.440Z,3.35
2023-03-16T06:48:22.163Z,3.50
2023-03-16T06:50:50.785Z,3.74
2023-03-16T06:53:25.586Z,4.13
2023-03-16T06:55:55.711Z,4.33
2023-03-16T06:58:24.386Z,4.56
2023-03-16T07:00:54.362Z,4.71
2023-03-16T07:03:22.890Z,4.90
2023-03-16T07:05:57.381Z,5.06
2023-03-16T07:08:27.436Z,5.27
2023-03-16T07:10:56.004Z,5.39
2023-03-16T07:13:24.436Z,5.50
2023-03-16T07:15:53.394Z,5.52
2023-03-16T07:18:26.325Z,5.56
2023-03-16T07:20:56.039Z,5.63
2023-03-16T07:23:28.958Z,5.75
2023-03-16T07:26:04.148Z,5.97
2023-03-16T07:28:35.296Z,6.17
2023-03-16T07:31:05.237Z,6.21
2023-03-16T07:33:40.198Z,6.36
2023-03-16T07:36:12.612Z,6.50
2023-03-16T07:38:48.654Z,6.54
2023-03-16T07:41:17.310Z,6.55
2023-03-16T07:43:45.624Z,6.50
2023-03-16T07:46:16.728Z,6.69
2023-03-16T07:48:46.078Z,6.90
2023-03-16T07:51:15.692Z,6.81
2023-03-16T07:53:50.602Z,6.68
2023-03-16T07:56:31.619Z,6.59
2023-03-16T07:59:09.369Z,6.50
2023-03-16T08:01:38.724Z,6.61
2023-03-16T08:04:07.358Z,6.52
2023-03-16T08:06:35.739Z,6.31
2023-03-16T08:09:06.277Z,6.17
2023-03-16T08:11:38.310Z,6.16
2023-03-16T08:14:07.579Z,6.14
2023-03-16T08:16:47.441Z,6.14
2023-03-16T08:19:18.054Z,6.16
2023-03-16T08:22:00.769Z,6.10
2023-03-16T08:24:38.982Z,5.92
2023-03-16T08:27:09.994Z,5.96
2023-03-16T08:29:41.455Z,6.07
2023-03-16T08:32:14.720Z,6.31
2023-03-16T08:34:46.556Z,6.57
2023-03-16T08:37:16.665Z,6.81
2023-03-16T08:39:52.014Z,6.61
2023-03-16T08:42:21.224Z,6.64
2023-03-16T08:44:56.487Z,6.74
2023-03-16T08:47:26.545Z,6.89
2023-03-16T08:49:56.251Z,7.00
2023-03-16T08:52:24.591Z,7.30
2023-03-16T08:55:02.864Z,7.34
2023-03-16T08:57:33.126Z,7.44
2023-03-16T09:00:01.650Z,7.57
2023-03-16T09:02:30.191Z,7.70
2023-03-16T09:04:59.205Z,7.78
2023-03-16T09:07:28.435Z,7.61
2023-03-16T09:09:58.464Z,7.60
2023-03-16T09:12:27.373Z,7.76
2023-03-16T09:14:56.498Z,7.94
2023-03-16T09:17:24.932Z,7.95
2023-03-16T09:19:56.220Z,8.20
2023-03-16T09:22:30.332Z,8.24
2023-03-16T09:25:00.304Z,8.21
2023-03-16T09:27:28.761Z,8.43
2023-03-16T09:29:59.625Z,8.54
2023-03-16T09:32:29.108Z,8.51
2023-03-16T09:34:57.702Z,8.58
2023-03-16T09:37:27.784Z,8.78
2023-03-16T09:40:03.197Z,8.96
2023-03-16T09:42:39.352Z,9.15
2023-03-16T09:45:11.004Z,9.47
2023-03-16T09:47:40.282Z,9.26
2023-03-16T09:50:11.099Z,9.35
2023-03-16T09:52:44.978Z,9.57
2023-03-16T09:55:18.080Z,9.87
2023-03-16T09:57:48.188Z,9.84
2023-03-16T10:00:19.528Z,9.88
2023-03-16T10:02:58.794Z,10.13
2023-03-16T10:05:28.527Z,10.14
2023-03-16T10:08:02.300Z,10.08
2023-03-16T10:10:41.370Z,10.20
2023-03-16T10:13:18.840Z,10.42
2023-03-16T10:15:48.657Z,10.56
2023-03-16T10:18:18.946Z,10.43
2023-03-16T10:20:48.303Z,10.58
2023-03-16T10:23:19.018Z,10.66
2023-03-16T10:25:51.499Z,10.62
2023-03-16T10:28:22.529Z,10.63
2023-03-16T10:30:52.129Z,10.58
2023-03-16T10:33:26.147Z,10.49
2023-03-16T10:36:00.203Z,10.32
2023-03-16T10:38:38.857Z,10.31
2023-03-16T10:41:20.598Z,10.10
2023-03-16T10:43:52.245Z,9.98
2023-03-16T10:46:21.341Z,10.24
2023-03-16T10:48:54.895Z,10.65
2023-03-16T10:51:26.180Z,10.84
2023-03-16T10:53:55.144Z,10.56
2023-03-16T10:56:25.466Z,10.22
2023-03-16T10:58:56.648Z,10.57
2023-03-16T11:01:26.995Z,10.77
2023-03-16T11:03:57.283Z,10.90
2023-03-16T11:06:30.992Z,10.73
2023-03-16T11:09:05.906Z,10.44
2023-03-16T11:11:35.817Z,10.49
2023-03-16T11:14:06.056Z,10.50
2023-03-16T11:16:38.503Z,10.57
2023-03-16T11:19:15.206Z,10.49
2023-03-16T11:21:49.869Z,10.50
2023-03-16T11:24:21.248Z,10.49
2023-03-16T11:26:54.706Z,10.45
2023-03-16T11:29:28.992Z,10.24
2023-03-16T11:32:00.174Z,10.16
2023-03-16T11:34:29.637Z,10.73
2023-03-16T11:37:02.407Z,10.85
2023-03-16T11:39:40.862Z,10.71
2023-03-16T11:42:21.991Z,10.92
2023-03-16T11:44:57.098Z,11.08
2023-03-16T11:47:43.377Z,10.75
2023-03-16T11:50:14.439Z,11.00
2023-03-16T11:52:47.240Z,11.08
2023-03-16T11:55:24.934Z,10.99
2023-03-16T11:57:58.913Z,10.65
2023-03-16T12:00:33.322Z,10.93
2023-03-16T12:03:17.717Z,11.05
2023-03-16T12:05:56.666Z,10.98
2023-03-16T12:08:36.465Z,11.33
2023-03-16T12:11:07.941Z,11.13
2023-03-16T12:13:46.110Z,10.90
2023-03-16T12:16:20.001Z,10.99
2023-03-16T12:18:50.530Z,11.31
2023-03-16T12:21:21.299Z,11.67
2023-03-16T12:23:52.632Z,11.61
2023-03-16T12:26:22.444Z,11.65
2023-03-16T12:28:52.061Z,11.42
2023-03-16T12:31:24.033Z,11.29
2023-03-16T12:33:59.688Z,11.02
2023-03-16T12:36:39.049Z,10.93
2023-03-16T12:39:09.435Z,10.94
2023-03-16T12:41:42.670Z,10.95
2023-03-16T12:44:17.587Z,10.98
2023-03-16T12:46:57.882Z,11.30
2023-03-16T12:49:29.014Z,11.54
2023-03-16T12:52:01.000Z,12.06
2023-03-16T12:54:29.995Z,12.03
2023-03-16T12:57:02.150Z,11.70
2023-03-16T12:59:39.175Z,11.43
2023-03-16T13:02:13.203Z,11.06
2023-03-16T13:04:44.608Z,11.03
2023-03-16T13:07:18.939Z,11.10
2023-03-16T13:09:51.049Z,11.25
2023-03-16T13:12:31.162Z,11.31
2023-03-16T13:14:59.885Z,11.12
2023-03-16T13:17:31.424Z,11.29
2023-03-16T13:20:06.967Z,11.25
2023-03-16T13:22:46.761Z,11.55
2023-03-16T13:25:18.248Z,11.60
2023-03-16T13:27:49.526Z,11.55
2023-03-16T13:30:19.679Z,11.61
2023-03-16T13:32:49.677Z,11.52
2023-03-16T13:35:19.619Z,11.43
2023-03-16T13:37:48.452Z,11.47
2023-03-16T13:40:19.681Z,11.62
2023-03-16T13:42:49.943Z,11.35
2023-03-16T13:45:21.561Z,11.40
2023-03-16T13:47:51.914Z,11.67
2023-03-16T13:50:20.899Z,11.73
2023-03-16T13:52:56.960Z,11.73
2023-03-16T13:55:28.849Z,11.84
2023-03-16T13:57:57.570Z,11.74
2023-03-16T14:00:28.236Z,11.79
2023-03-16T14:02:59.444Z,11.92
2023-03-16T14:05:29.652Z,11.76
2023-03-16T14:08:01.195Z,11.87
2023-03-16T14:10:33.607Z,11.71
2023-03-16T14:13:09.369Z,11.66
2023-03-16T14:15:38.840Z,11.57
2023-03-16T14:18:14.428Z,11.47
2023-03-16T14:20:42.957Z,11.52
2023-03-16T14:23:19.650Z,11.48
2023-03-16T14:25:49.265Z,11.49
2023-03-16T14:28:18.853Z,11.50
2023-03-16T14:30:53.841Z,11.71
2023-03-16T14:33:31.177Z,11.93
2023-03-16T14:36:00.897Z,11.51
2023-03-16T14:38:32.271Z,11.28
2023-03-16T14:41:04.806Z,11.06
2023-03-16T14:43:34.298Z,11.15
2023-03-16T14:46:05.780Z,11.33
2023-03-16T14:48:36.690Z,11.36
2023-03-16T14:51:06.664Z,11.33
2023-03-16T14:53:35.032Z,11.38
2023-03-16T14:56:03.988Z,11.35
2023-03-16T14:58:34.494Z,11.40
2023-03-16T15:01:04.300Z,11.34
2023-03-16T15:03:35.795Z,11.40
2023-03-16T15:06:06.057Z,11.41
2023-03-16T15:08:43.669Z,11.38
2023-03-16T15:11:12.241Z,11.24
2023-03-16T15:14:04.529Z,11.16
2023-03-16T15:16:34.799Z,11.07
2023-03-16T15:19:03.474Z,11.07
2023-03-16T15:21:33.301Z,10.95
2023-03-16T15:24:01.720Z,10.89
2023-03-16T15:26:31.009Z,10.72
2023-03-16T15:28:59.770Z,10.52
2023-03-16T15:31:28.260Z,10.44
2023-03-16T15:33:56.813Z,10.33
2023-03-16T15:36:25.325Z,10.20
2023-03-16T15:38:57.066Z,10.08
2023-03-16T15:41:30.141Z,10.03
2023-03-16T15:44:01.094Z,9.91
2023-03-16T15:46:29.632Z,9.81
2023-03-16T15:48:58.424Z,9.70
2023-03-16T15:51:29.139Z,9.64
2023-03-16T15:54:01.258Z,9.59
2023-03-16T15:56:32.341Z,9.45
2023-03-16T15:59:04.007Z,9.37
2023-03-16T16:01:38.193Z,9.29
2023-03-16T16:04:09.569Z,9.22
2023-03-16T16:06:38.005Z,9.16
2023-03-16T16:09:08.095Z,9.13
2023-03-16T16:11:37.645Z,9.08
2023-03-16T16:14:06.477Z,9.03
2023-03-16T16:16:35.537Z,8.97
2023-03-16T16:19:04.052Z,8.91
2023-03-16T16:21:33.791Z,8.83
2023-03-16T16:24:03.276Z,8.79
2023-03-16T16:26:54.718Z,8.71
2023-03-16T16:29:25.042Z,8.66
2023-03-16T16:31:53.788Z,8.57
2023-03-16T16:34:24.979Z,8.52
2023-03-16T16:36:54.444Z,8.45
2023-03-16T16:39:23.237Z,8.39
2023-03-16T16:41:56.905Z,8.32
2023-03-16T16:44:27.629Z,8.26
2023-03-16T16:46:56.508Z,8.17
2023-03-16T16:49:26.207Z,8.07
2023-03-16T16:51:55.578Z,8.01
2023-03-16T16:54:25.732Z,7.93
2023-03-16T16:56:56.409Z,7.87
2023-03-16T16:59:26.412Z,7.83
2023-03-16T17:01:55.506Z,7.73
2023-03-16T17:04:25.620Z,7.68
2023-03-16T17:06:55.822Z,7.65
2023-03-16T17:09:25.054Z,7.58
2023-03-16T17:11:56.302Z,7.50
2023-03-16T17:14:28.563Z,7.47
2023-03-16T17:16:57.365Z,7.40
2023-03-16T17:19:27.691Z,7.33
2023-03-16T17:21:57.478Z,7.28
2023-03-16T17:24:26.462Z,7.24
2023-03-16T17:26:56.613Z,7.21
2023-03-16T17:29:29.156Z,7.10
2023-03-16T17:31:57.630Z,7.01
2023-03-16T17:34:27.471Z,6.92
2023-03-16T17:36:56.643Z,6.84
2023-03-16T17:39:26.389Z,6.80
2023-03-16T17:41:56.678Z,6.78
2023-03-16T17:44:27.028Z,6.69
2023-03-16T17:46:55.698Z,6.62
2023-03-16T17:49:28.768Z,6.56
2023-03-16T17:51:57.558Z,6.46
2023-03-16T17:54:26.275Z,6.35
2023-03-16T17:56:55.084Z,6.24
2023-03-16T17:59:24.174Z,6.11
2023-03-16T18:01:55.004Z,6.02
2023-03-16T18:04:24.965Z,5.95
2023-03-16T18:06:54.406Z,5.88
2023-03-16T18:09:22.841Z,5.74
2023-03-16T18:11:52.847Z,5.66
2023-03-16T18:14:26.575Z,5.62
2023-03-16T18:16:56.537Z,5.58
2023-03-16T18:19:26.393Z,5.46
2023-03-16T18:21:54.912Z,5.39
2023-03-16T18:24:26.968Z,5.29
2023-03-16T18:26:55.521Z,5.23
2023-03-16T18:29:24.181Z,5.13
2023-03-16T18:31:55.626Z,5.01
2023-03-16T18:34:27.610Z,4.85
2023-03-16T18:37:00.054Z,4.77
2023-03-16T18:39:28.661Z,4.62
2023-03-16T18:41:57.103Z,4.54
2023-03-16T18:44:26.573Z,4.47
2023-03-16T18:46:58.481Z,4.38
2023-03-16T18:49:31.068Z,4.24
2023-03-16T18:51:59.480Z,4.15
2023-03-16T18:54:30.891Z,4.11
2023-03-16T18:56:59.940Z,4.14
2023-03-16T18:59:28.530Z,4.16
2023-03-16T19:01:58.366Z,4.14
2023-03-16T19:04:27.938Z,4.07
2023-03-16T19:06:58.129Z,3.90
2023-03-16T19:09:28.126Z,3.80
2023-03-16T19:11:56.639Z,3.73
2023-03-16T19:14:27.317Z,3.72
2023-03-16T19:16:56.473Z,3.70
2023-03-16T19:19:25.124Z,3.54
2023-03-16T19:21:54.859Z,3.51
2023-03-16T19:24:26.785Z,3.58
2023-03-16T19:26:56.198Z,3.62
2023-03-16T19:29:29.242Z,3.51
2023-03-16T19:31:58.018Z,3.38
2023-03-16T19:34:26.693Z,3.35
2023-03-16T19:36:56.542Z,3.34
2023-03-16T19:39:27.200Z,3.32
2023-03-16T19:41:56.919Z,3.30
2023-03-16T19:44:26.802Z,3.24
2023-03-16T19:46:55.796Z,3.21
2023-03-16T19:49:26.225Z,3.15
2023-03-16T19:51:55.945Z,3.03
2023-03-16T19:54:25.268Z,2.98
2023-03-16T19:56:56.461Z,2.93
2023-03-16T19:59:28.065Z,2.94
2023-03-16T20:01:56.496Z,2.75
2023-03-16T20:04:26.137Z,2.58
2023-03-16T20:06:55.001Z,2.51
2023-03-16T20:09:23.529Z,2.45
2023-03-16T20:11:52.654Z,2.42
2023-03-16T20:14:25.035Z,2.33
2023-03-16T20:16:53.782Z,2.26
2023-03-16T20:19:23.480Z,2.24
2023-03-16T20:21:52.294Z,2.27
2023-03-16T20:24:22.375Z,2.21
2023-03-16T20:26:51.617Z,2.26
2023-03-16T20:29:23.397Z,2.38
2023-03-16T20:31:53.663Z,2.51
2023-03-16T20:34:24.866Z,2.52
2023-03-16T20:36:53.348Z,2.49
2023-03-16T20:39:21.918Z,2.42
2023-03-16T20:41:50.619Z,2.34
2023-03-16T20:44:20.433Z,2.26
2023-03-16T20:46:49.234Z,2.14
2023-03-16T20:49:28.885Z,2.06
2023-03-16T20:51:58.771Z,1.91
2023-03-16T20:54:27.355Z,2.02
2023-03-16T20:56:55.832Z,2.07
2023-03-16T20:59:26.759Z,1.85
2023-03-16T21:01:56.408Z,1.60
2023-03-16T21:04:27.531Z,1.44
2023-03-16T21:06:57.069Z,1.33
2023-03-16T21:09:28.094Z,1.23
2023-03-16T21:11:56.622Z,1.38
2023-03-16T21:14:25.346Z,1.46
2023-03-16T21:16:54.717Z,1.43
2023-03-16T21:19:24.204Z,1.46
2023-03-16T21:21:53.231Z,1.53
2023-03-16T21:24:22.035Z,1.54
2023-03-16T21:26:52.438Z,1.48
2023-03-16T21:29:22.068Z,1.50
2023-03-16T21:31:50.657Z,1.47
2023-03-16T21:34:23.940Z,1.35
2023-03-16T21:36:52.519Z,1.38
2023-03-16T21:39:22.650Z,1.45
2023-03-16T21:41:52.623Z,1.53
2023-03-16T21:44:21.060Z,1.59
2023-03-16T21:46:49.804Z,1.67
2023-03-16T21:49:18.341Z,1.70
2023-03-16T21:51:46.761Z,1.67
2023-03-16T21:54:16.120Z,1.65
2023-03-16T21:56:44.838Z,1.59
2023-03-16T21:59:14.942Z,1.50
2023-03-16T22:01:58.662Z,1.50
2023-03-16T22:04:29.849Z,1.42
2023-03-16T22:06:58.252Z,1.41
2023-03-16T22:09:30.656Z,1.45
2023-03-16T22:11:59.074Z,1.43
2023-03-16T22:14:28.888Z,1.46
2023-03-16T22:16:57.999Z,1.41
2023-03-16T22:19:28.686Z,1.38
2023-03-16T22:21:57.835Z,1.40
2023-03-16T22:24:27.538Z,1.39
2023-03-16T22:26:56.805Z,1.25
2023-03-16T22:29:26.702Z,1.19
2023-03-16T22:31:58.188Z,1.23
2023-03-16T22:34:29.165Z,1.26
2023-03-16T22:36:58.132Z,1.24
2023-03-16T22:39:26.502Z,1.11
2023-03-16T22:41:54.991Z,1.14
2023-03-16T22:44:23.995Z,1.14
2023-03-16T22:46:52.463Z,1.14
2023-03-16T22:49:24.288Z,1.18
2023-03-16T22:51:54.124Z,1.17
2023-03-16T22:54:24.257Z,1.10
2023-03-16T22:56:52.965Z,1.05
2023-03-16T22:59:23.422Z,1.08
2023-03-16T23:01:51.954Z,1.06
2023-03-16T23:04:21.395Z,1.07
2023-03-16T23:06:54.608Z,1.04
2023-03-16T23:09:23.515Z,1.03
2023-03-16T23:11:54.113Z,1.04
2023-03-16T23:14:24.260Z,1.06
2023-03-16T23:16:52.766Z,1.10
2023-03-16T23:19:24.752Z,1.06
2023-03-16T23:21:56.958Z,1.07
2023-03-16T23:24:25.786Z,1.08
2023-03-16T23:26:55.060Z,0.99
2023-03-16T23:29:24.550Z,0.96
2023-03-16T23:31:54.311Z,0.99
2023-03-16T23:34:23.827Z,0.98
2023-03-16T23:36:52.856Z,0.98
2023-03-16T23:39:23.565Z,0.98
2023-03-16T23:41:52.447Z,0.99
2023-03-16T23:44:22.796Z,0.98
2023-03-16T23:46:51.572Z,0.99
2023-03-16T23:49:22.306Z,0.93
2023-03-16T23:51:51.137Z,0.87
2023-03-16T23:54:21.248Z,0.88
2023-03-16T23:56:51.626Z,0.88
2023-03-16T23:59:21.134Z,0.83
